sensor_id;sensor_type;location;lat;lon;timestamp;P1;durP1;ratioP1;P2;durP2;ratioP2
37407;SDS011;24866;50.248;8.252;2023-08-21T00:00:44;11.90;;;5.88;;
37407;SDS011;24866;50.248;8.252;2023-08-21T00:03:14;8.85;;;5.85;;
37407;SDS011;24866;50.248;8.252;2023-08-21T00:05:44;7.63;;;6.20;;
37407;SDS011;24866;50.248;8.252;2023-08-21T00:08:16;10.70;;;6.38;;
37407;SDS011;24866;50.248;8.252;2023-08-21T00:10:45;9.35;;;6.10;;
37407;SDS011;24866;50.248;8.252;2023-08-21T00:13:15;10.40;;;5.82;;
37407;SDS011;24866;50.248;8.252;2023-08-21T00:15:47;8.98;;;5.60;;
37407;SDS011;24866;50.248;8.252;2023-08-21T00:18:16;8.60;;;6.22;;
37407;SDS011;24866;50.248;8.252;2023-08-21T00:20:47;12.55;;;6.55;;
37407;SDS011;24866;50.248;8.252;2023-08-21T00:23:18;9.20;;;6.78;;
37407;SDS011;24866;50.248;8.252;2023-08-21T00:25:48;10.65;;;5.78;;
37407;SDS011;24866;50.248;8.252;2023-08-21T00:28:18;11.07;;;6.32;;
37407;SDS011;24866;50.248;8.252;2023-08-21T00:30:47;7.93;;;6.15;;
37407;SDS011;24866;50.248;8.252;2023-08-21T00:33:17;10.73;;;6.28;;
37407;SDS011;24866;50.248;8.252;2023-08-21T00:35:47;7.90;;;5.38;;
37407;SDS011;24866;50.248;8.252;2023-08-21T00:38:18;9.43;;;5.97;;
37407;SDS011;24866;50.248;8.252;2023-08-21T00:40:48;9.27;;;6.45;;
37407;SDS011;24866;50.248;8.252;2023-08-21T00:43:18;10.57;;;6.35;;
37407;SDS011;24866;50.248;8.252;2023-08-21T00:45:48;8.00;;;6.03;;
37407;SDS011;24866;50.248;8.252;2023-08-21T00:48:19;8.77;;;6.22;;
37407;SDS011;24866;50.248;8.252;2023-08-21T00:50:49;11.02;;;6.18;;
37407;SDS011;24866;50.248;8.252;2023-08-21T00:53:21;10.60;;;6.30;;
37407;SDS011;24866;50.248;8.252;2023-08-21T00:55:51;8.98;;;6.72;;
37407;SDS011;24866;50.248;8.252;2023-08-21T00:58:21;13.55;;;6.00;;
37407;SDS011;24866;50.248;8.252;2023-08-21T01:00:51;9.90;;;6.50;;
37407;SDS011;24866;50.248;8.252;2023-08-21T01:03:22;8.63;;;6.05;;
37407;SDS011;24866;50.248;8.252;2023-08-21T01:05:52;10.68;;;6.80;;
37407;SDS011;24866;50.248;8.252;2023-08-21T01:08:28;12.20;;;7.78;;
37407;SDS011;24866;50.248;8.252;2023-08-21T01:13:44;12.05;;;7.68;;
37407;SDS011;24866;50.248;8.252;2023-08-21T01:16:22;12.55;;;7.50;;
37407;SDS011;24866;50.248;8.252;2023-08-21T01:18:53;13.70;;;8.20;;
37407;SDS011;24866;50.248;8.252;2023-08-21T01:21:25;13.05;;;7.68;;
37407;SDS011;24866;50.248;8.252;2023-08-21T01:23:57;9.23;;;7.78;;
37407;SDS011;24866;50.248;8.252;2023-08-21T01:26:27;9.57;;;7.70;;
37407;SDS011;24866;50.248;8.252;2023-08-21T01:28:57;10.88;;;7.60;;
37407;SDS011;24866;50.248;8.252;2023-08-21T01:31:28;8.85;;;7.35;;
37407;SDS011;24866;50.248;8.252;2023-08-21T01:34:06;9.68;;;7.65;;
37407;SDS011;24866;50.248;8.252;2023-08-21T01:39:09;14.55;;;7.80;;
37407;SDS011;24866;50.248;8.252;2023-08-21T01:41:40;9.07;;;7.43;;
37407;SDS011;24866;50.248;8.252;2023-08-21T01:44:11;12.43;;;7.80;;
37407;SDS011;24866;50.248;8.252;2023-08-21T01:46:40;11.30;;;7.68;;
37407;SDS011;24866;50.248;8.252;2023-08-21T01:49:10;10.27;;;7.32;;
37407;SDS011;24866;50.248;8.252;2023-08-21T01:51:40;9.38;;;7.05;;
37407;SDS011;24866;50.248;8.252;2023-08-21T01:54:12;8.95;;;7.20;;
37407;SDS011;24866;50.248;8.252;2023-08-21T01:56:41;12.05;;;6.70;;
37407;SDS011;24866;50.248;8.252;2023-08-21T01:59:11;11.90;;;7.43;;
37407;SDS011;24866;50.248;8.252;2023-08-21T02:01:41;11.60;;;6.78;;
37407;SDS011;24866;50.248;8.252;2023-08-21T02:04:11;10.32;;;6.50;;
37407;SDS011;24866;50.248;8.252;2023-08-21T02:06:41;10.95;;;6.80;;
37407;SDS011;24866;50.248;8.252;2023-08-21T02:09:13;8.45;;;6.40;;
37407;SDS011;24866;50.248;8.252;2023-08-21T02:11:43;7.63;;;6.30;;
37407;SDS011;24866;50.248;8.252;2023-08-21T02:14:13;8.80;;;7.00;;
37407;SDS011;24866;50.248;8.252;2023-08-21T02:16:43;9.93;;;6.93;;
37407;SDS011;24866;50.248;8.252;2023-08-21T02:19:13;9.30;;;7.00;;
37407;SDS011;24866;50.248;8.252;2023-08-21T02:21:43;9.50;;;7.03;;
37407;SDS011;24866;50.248;8.252;2023-08-21T02:24:14;7.70;;;6.47;;
37407;SDS011;24866;50.248;8.252;2023-08-21T02:26:45;9.02;;;6.97;;
37407;SDS011;24866;50.248;8.252;2023-08-21T02:29:15;8.25;;;6.97;;
37407;SDS011;24866;50.248;8.252;2023-08-21T02:31:44;8.35;;;6.85;;
37407;SDS011;24866;50.248;8.252;2023-08-21T02:34:14;8.23;;;6.45;;
37407;SDS011;24866;50.248;8.252;2023-08-21T02:36:44;8.10;;;5.97;;
37407;SDS011;24866;50.248;8.252;2023-08-21T02:39:15;9.27;;;6.30;;
37407;SDS011;24866;50.248;8.252;2023-08-21T02:41:45;7.35;;;6.18;;
37407;SDS011;24866;50.248;8.252;2023-08-21T02:44:15;10.13;;;7.47;;
37407;SDS011;24866;50.248;8.252;2023-08-21T02:46:45;13.23;;;7.13;;
37407;SDS011;24866;50.248;8.252;2023-08-21T02:49:15;7.80;;;6.75;;
37407;SDS011;24866;50.248;8.252;2023-08-21T02:51:45;9.75;;;6.35;;
37407;SDS011;24866;50.248;8.252;2023-08-21T02:54:16;8.77;;;6.63;;
37407;SDS011;24866;50.248;8.252;2023-08-21T02:56:46;10.77;;;7.22;;
37407;SDS011;24866;50.248;8.252;2023-08-21T02:59:16;10.07;;;6.68;;
37407;SDS011;24866;50.248;8.252;2023-08-21T03:01:46;12.55;;;6.90;;
37407;SDS011;24866;50.248;8.252;2023-08-21T03:04:16;9.10;;;7.22;;
37407;SDS011;24866;50.248;8.252;2023-08-21T03:06:46;11.18;;;7.28;;
37407;SDS011;24866;50.248;8.252;2023-08-21T03:09:17;9.80;;;7.07;;
37407;SDS011;24866;50.248;8.252;2023-08-21T03:11:47;11.95;;;8.20;;
37407;SDS011;24866;50.248;8.252;2023-08-21T03:14:17;12.82;;;7.70;;
37407;SDS011;24866;50.248;8.252;2023-08-21T03:16:47;10.32;;;7.75;;
37407;SDS011;24866;50.248;8.252;2023-08-21T03:19:17;10.75;;;6.43;;
37407;SDS011;24866;50.248;8.252;2023-08-21T03:21:47;11.05;;;7.18;;
37407;SDS011;24866;50.248;8.252;2023-08-21T03:24:18;12.98;;;6.28;;
37407;SDS011;24866;50.248;8.252;2023-08-21T03:26:48;12.55;;;7.20;;
37407;SDS011;24866;50.248;8.252;2023-08-21T03:29:18;10.32;;;6.63;;
37407;SDS011;24866;50.248;8.252;2023-08-21T03:31:48;11.55;;;7.20;;
37407;SDS011;24866;50.248;8.252;2023-08-21T03:34:18;11.82;;;7.70;;
37407;SDS011;24866;50.248;8.252;2023-08-21T03:36:48;12.80;;;7.57;;
37407;SDS011;24866;50.248;8.252;2023-08-21T03:39:19;12.13;;;8.30;;
37407;SDS011;24866;50.248;8.252;2023-08-21T03:41:49;11.65;;;7.30;;
37407;SDS011;24866;50.248;8.252;2023-08-21T03:44:19;10.15;;;7.57;;
37407;SDS011;24866;50.248;8.252;2023-08-21T03:46:49;9.23;;;8.20;;
37407;SDS011;24866;50.248;8.252;2023-08-21T03:49:19;10.98;;;7.97;;
37407;SDS011;24866;50.248;8.252;2023-08-21T03:51:49;10.40;;;8.05;;
37407;SDS011;24866;50.248;8.252;2023-08-21T03:54:20;11.20;;;7.53;;
37407;SDS011;24866;50.248;8.252;2023-08-21T03:56:50;11.57;;;8.27;;
37407;SDS011;24866;50.248;8.252;2023-08-21T03:59:20;12.77;;;8.50;;
37407;SDS011;24866;50.248;8.252;2023-08-21T04:01:51;12.48;;;7.43;;
37407;SDS011;24866;50.248;8.252;2023-08-21T04:04:21;9.65;;;7.50;;
37407;SDS011;24866;50.248;8.252;2023-08-21T04:06:51;11.48;;;8.05;;
37407;SDS011;24866;50.248;8.252;2023-08-21T04:09:22;13.40;;;7.30;;
37407;SDS011;24866;50.248;8.252;2023-08-21T04:11:53;12.30;;;7.97;;
37407;SDS011;24866;50.248;8.252;2023-08-21T04:14:23;10.43;;;7.53;;
37407;SDS011;24866;50.248;8.252;2023-08-21T04:16:53;10.85;;;7.32;;
37407;SDS011;24866;50.248;8.252;2023-08-21T04:19:22;12.15;;;7.95;;
37407;SDS011;24866;50.248;8.252;2023-08-21T04:21:53;9.02;;;7.35;;
37407;SDS011;24866;50.248;8.252;2023-08-21T04:24:24;10.93;;;6.72;;
37407;SDS011;24866;50.248;8.252;2023-08-21T04:26:54;10.02;;;7.13;;
37407;SDS011;24866;50.248;8.252;2023-08-21T04:29:24;9.45;;;7.05;;
37407;SDS011;24866;50.248;8.252;2023-08-21T04:31:54;8.25;;;6.68;;
37407;SDS011;24866;50.248;8.252;2023-08-21T04:34:24;8.18;;;6.68;;
37407;SDS011;24866;50.248;8.252;2023-08-21T04:36:54;11.40;;;6.53;;
37407;SDS011;24866;50.248;8.252;2023-08-21T04:39:25;9.90;;;6.88;;
37407;SDS011;24866;50.248;8.252;2023-08-21T04:41:55;10.68;;;7.10;;
37407;SDS011;24866;50.248;8.252;2023-08-21T04:44:25;12.63;;;7.00;;
37407;SDS011;24866;50.248;8.252;2023-08-21T04:46:55;9.65;;;6.82;;
37407;SDS011;24866;50.248;8.252;2023-08-21T04:49:25;10.40;;;7.10;;
37407;SDS011;24866;50.248;8.252;2023-08-21T04:51:55;9.07;;;7.38;;
37407;SDS011;24866;50.248;8.252;2023-08-21T04:54:26;10.07;;;6.78;;
37407;SDS011;24866;50.248;8.252;2023-08-21T04:56:56;8.65;;;6.88;;
37407;SDS011;24866;50.248;8.252;2023-08-21T04:59:26;9.40;;;7.78;;
37407;SDS011;24866;50.248;8.252;2023-08-21T05:01:56;9.85;;;7.07;;
37407;SDS011;24866;50.248;8.252;2023-08-21T05:04:26;10.00;;;7.22;;
37407;SDS011;24866;50.248;8.252;2023-08-21T05:06:56;12.90;;;8.05;;
37407;SDS011;24866;50.248;8.252;2023-08-21T05:09:27;10.90;;;7.22;;
37407;SDS011;24866;50.248;8.252;2023-08-21T05:11:57;12.45;;;7.68;;
37407;SDS011;24866;50.248;8.252;2023-08-21T05:14:27;11.85;;;7.68;;
37407;SDS011;24866;50.248;8.252;2023-08-21T05:16:57;10.63;;;8.20;;
37407;SDS011;24866;50.248;8.252;2023-08-21T05:19:27;9.68;;;7.45;;
37407;SDS011;24866;50.248;8.252;2023-08-21T05:21:57;9.57;;;7.38;;
37407;SDS011;24866;50.248;8.252;2023-08-21T05:24:28;14.13;;;8.45;;
37407;SDS011;24866;50.248;8.252;2023-08-21T05:26:58;11.27;;;7.82;;
37407;SDS011;24866;50.248;8.252;2023-08-21T05:29:28;9.85;;;8.45;;
37407;SDS011;24866;50.248;8.252;2023-08-21T05:31:58;11.35;;;9.07;;
37407;SDS011;24866;50.248;8.252;2023-08-21T05:34:28;10.90;;;8.30;;
37407;SDS011;24866;50.248;8.252;2023-08-21T05:36:58;12.13;;;8.55;;
37407;SDS011;24866;50.248;8.252;2023-08-21T05:39:29;11.13;;;9.63;;
37407;SDS011;24866;50.248;8.252;2023-08-21T05:41:59;12.80;;;8.68;;
37407;SDS011;24866;50.248;8.252;2023-08-21T05:44:29;14.77;;;10.23;;
37407;SDS011;24866;50.248;8.252;2023-08-21T05:46:59;14.43;;;11.52;;
37407;SDS011;24866;50.248;8.252;2023-08-21T05:49:29;18.33;;;13.30;;
37407;SDS011;24866;50.248;8.252;2023-08-21T05:51:59;14.10;;;9.82;;
37407;SDS011;24866;50.248;8.252;2023-08-21T05:54:30;13.80;;;10.65;;
37407;SDS011;24866;50.248;8.252;2023-08-21T05:57:00;13.70;;;10.57;;
37407;SDS011;24866;50.248;8.252;2023-08-21T05:59:30;16.30;;;11.35;;
37407;SDS011;24866;50.248;8.252;2023-08-21T06:02:01;14.35;;;10.38;;
37407;SDS011;24866;50.248;8.252;2023-08-21T06:04:31;12.25;;;10.60;;
37407;SDS011;24866;50.248;8.252;2023-08-21T06:07:01;15.57;;;10.82;;
37407;SDS011;24866;50.248;8.252;2023-08-21T06:09:32;11.50;;;10.02;;
37407;SDS011;24866;50.248;8.252;2023-08-21T06:12:03;14.82;;;10.38;;
37407;SDS011;24866;50.248;8.252;2023-08-21T06:14:34;15.02;;;13.55;;
37407;SDS011;24866;50.248;8.252;2023-08-21T06:17:04;14.60;;;11.73;;
37407;SDS011;24866;50.248;8.252;2023-08-21T06:19:34;14.18;;;10.05;;
37407;SDS011;24866;50.248;8.252;2023-08-21T06:22:04;14.55;;;13.05;;
37407;SDS011;24866;50.248;8.252;2023-08-21T06:24:36;14.55;;;11.35;;
37407;SDS011;24866;50.248;8.252;2023-08-21T06:27:06;13.57;;;11.57;;
37407;SDS011;24866;50.248;8.252;2023-08-21T06:29:36;13.00;;;10.73;;
37407;SDS011;24866;50.248;8.252;2023-08-21T06:32:08;14.63;;;13.13;;
37407;SDS011;24866;50.248;8.252;2023-08-21T06:34:38;12.27;;;10.98;;
37407;SDS011;24866;50.248;8.252;2023-08-21T06:37:08;16.05;;;11.10;;
37407;SDS011;24866;50.248;8.252;2023-08-21T06:39:39;17.90;;;14.50;;
37407;SDS011;24866;50.248;8.252;2023-08-21T06:44:40;19.00;;;14.35;;
37407;SDS011;24866;50.248;8.252;2023-08-21T06:47:10;15.48;;;11.57;;
37407;SDS011;24866;50.248;8.252;2023-08-21T06:49:40;15.95;;;13.35;;
37407;SDS011;24866;50.248;8.252;2023-08-21T06:52:10;16.23;;;14.52;;
37407;SDS011;24866;50.248;8.252;2023-08-21T06:54:41;12.85;;;11.45;;
37407;SDS011;24866;50.248;8.252;2023-08-21T06:57:11;21.50;;;12.43;;
37407;SDS011;24866;50.248;8.252;2023-08-21T06:59:41;14.85;;;12.02;;
37407;SDS011;24866;50.248;8.252;2023-08-21T07:02:11;13.40;;;11.95;;
37407;SDS011;24866;50.248;8.252;2023-08-21T07:04:41;12.75;;;11.35;;
37407;SDS011;24866;50.248;8.252;2023-08-21T07:07:11;13.00;;;11.68;;
37407;SDS011;24866;50.248;8.252;2023-08-21T07:09:42;14.55;;;12.15;;
37407;SDS011;24866;50.248;8.252;2023-08-21T07:12:12;15.93;;;10.90;;
37407;SDS011;24866;50.248;8.252;2023-08-21T07:14:42;12.27;;;10.95;;
37407;SDS011;24866;50.248;8.252;2023-08-21T07:17:12;13.95;;;12.55;;
37407;SDS011;24866;50.248;8.252;2023-08-21T07:19:42;15.10;;;12.60;;
37407;SDS011;24866;50.248;8.252;2023-08-21T07:22:12;12.65;;;10.45;;
37407;SDS011;24866;50.248;8.252;2023-08-21T07:24:43;14.48;;;12.85;;
37407;SDS011;24866;50.248;8.252;2023-08-21T07:27:13;16.80;;;13.27;;
37407;SDS011;24866;50.248;8.252;2023-08-21T07:29:43;13.18;;;10.93;;
37407;SDS011;24866;50.248;8.252;2023-08-21T07:32:13;12.65;;;11.27;;
37407;SDS011;24866;50.248;8.252;2023-08-21T07:34:43;14.63;;;11.75;;
37407;SDS011;24866;50.248;8.252;2023-08-21T07:37:13;12.20;;;10.23;;
37407;SDS011;24866;50.248;8.252;2023-08-21T07:39:44;11.50;;;9.23;;
37407;SDS011;24866;50.248;8.252;2023-08-21T07:42:14;12.82;;;11.43;;
37407;SDS011;24866;50.248;8.252;2023-08-21T07:44:44;13.40;;;10.30;;
37407;SDS011;24866;50.248;8.252;2023-08-21T07:47:15;13.50;;;10.50;;
37407;SDS011;24866;50.248;8.252;2023-08-21T07:49:45;13.10;;;10.18;;
37407;SDS011;24866;50.248;8.252;2023-08-21T07:52:15;12.82;;;9.73;;
37407;SDS011;24866;50.248;8.252;2023-08-21T07:54:46;15.63;;;10.05;;
37407;SDS011;24866;50.248;8.252;2023-08-21T07:57:20;13.52;;;10.90;;
37407;SDS011;24866;50.248;8.252;2023-08-21T07:59:50;10.65;;;9.18;;
37407;SDS011;24866;50.248;8.252;2023-08-21T08:02:20;15.35;;;9.45;;
37407;SDS011;24866;50.248;8.252;2023-08-21T08:04:50;12.48;;;9.98;;
37407;SDS011;24866;50.248;8.252;2023-08-21T08:07:20;13.30;;;9.63;;
37407;SDS011;24866;50.248;8.252;2023-08-21T08:09:52;12.75;;;10.25;;
37407;SDS011;24866;50.248;8.252;2023-08-21T08:12:22;14.18;;;11.30;;
37407;SDS011;24866;50.248;8.252;2023-08-21T08:14:53;16.70;;;10.27;;
37407;SDS011;24866;50.248;8.252;2023-08-21T08:17:23;12.07;;;9.90;;
37407;SDS011;24866;50.248;8.252;2023-08-21T08:19:53;15.13;;;9.75;;
37407;SDS011;24866;50.248;8.252;2023-08-21T08:22:22;8.48;;;7.43;;
37407;SDS011;24866;50.248;8.252;2023-08-21T08:24:54;9.85;;;7.60;;
37407;SDS011;24866;50.248;8.252;2023-08-21T08:27:24;13.53;;;9.03;;
37407;SDS011;24866;50.248;8.252;2023-08-21T08:29:54;8.68;;;7.65;;
37407;SDS011;24866;50.248;8.252;2023-08-21T08:32:24;7.93;;;7.13;;
37407;SDS011;24866;50.248;8.252;2023-08-21T08:34:55;14.52;;;8.40;;
37407;SDS011;24866;50.248;8.252;2023-08-21T08:37:25;10.70;;;9.10;;
37407;SDS011;24866;50.248;8.252;2023-08-21T08:39:56;9.50;;;8.50;;
37407;SDS011;24866;50.248;8.252;2023-08-21T08:42:26;9.98;;;8.57;;
37407;SDS011;24866;50.248;8.252;2023-08-21T08:44:56;10.13;;;9.13;;
37407;SDS011;24866;50.248;8.252;2023-08-21T08:47:31;14.40;;;8.05;;
37407;SDS011;24866;50.248;8.252;2023-08-21T08:50:03;13.73;;;8.27;;
37407;SDS011;24866;50.248;8.252;2023-08-21T08:52:35;9.30;;;7.30;;
37407;SDS011;24866;50.248;8.252;2023-08-21T08:55:08;10.02;;;7.38;;
37407;SDS011;24866;50.248;8.252;2023-08-21T09:00:09;9.85;;;7.35;;
37407;SDS011;24866;50.248;8.252;2023-08-21T09:02:40;10.23;;;6.30;;
37407;SDS011;24866;50.248;8.252;2023-08-21T09:05:10;8.98;;;8.07;;
37407;SDS011;24866;50.248;8.252;2023-08-21T09:07:40;10.07;;;6.68;;
37407;SDS011;24866;50.248;8.252;2023-08-21T09:12:49;14.05;;;7.40;;
37407;SDS011;24866;50.248;8.252;2023-08-21T09:15:20;8.10;;;6.32;;
37407;SDS011;24866;50.248;8.252;2023-08-21T09:17:56;8.02;;;6.45;;
37407;SDS011;24866;50.248;8.252;2023-08-21T09:20:26;9.02;;;6.65;;
37407;SDS011;24866;50.248;8.252;2023-08-21T09:22:56;11.63;;;7.40;;
37407;SDS011;24866;50.248;8.252;2023-08-21T09:25:27;9.38;;;6.72;;
37407;SDS011;24866;50.248;8.252;2023-08-21T09:27:57;11.13;;;6.75;;
37407;SDS011;24866;50.248;8.252;2023-08-21T09:30:28;7.15;;;5.45;;
37407;SDS011;24866;50.248;8.252;2023-08-21T09:32:59;8.38;;;6.72;;
37407;SDS011;24866;50.248;8.252;2023-08-21T09:35:32;9.15;;;6.75;;
37407;SDS011;24866;50.248;8.252;2023-08-21T09:38:02;10.88;;;7.50;;
37407;SDS011;24866;50.248;8.252;2023-08-21T09:40:34;11.15;;;6.93;;
37407;SDS011;24866;50.248;8.252;2023-08-21T09:43:08;10.32;;;6.65;;
37407;SDS011;24866;50.248;8.252;2023-08-21T09:45:39;5.88;;;5.28;;
37407;SDS011;24866;50.248;8.252;2023-08-21T09:48:09;7.78;;;6.38;;
37407;SDS011;24866;50.248;8.252;2023-08-21T09:50:39;8.18;;;5.40;;
37407;SDS011;24866;50.248;8.252;2023-08-21T09:53:09;10.38;;;5.88;;
37407;SDS011;24866;50.248;8.252;2023-08-21T09:55:41;7.43;;;5.68;;
37407;SDS011;24866;50.248;8.252;2023-08-21T09:58:12;6.88;;;5.82;;
37407;SDS011;24866;50.248;8.252;2023-08-21T10:00:43;8.93;;;5.13;;
37407;SDS011;24866;50.248;8.252;2023-08-21T10:03:14;7.65;;;4.90;;
37407;SDS011;24866;50.248;8.252;2023-08-21T10:05:48;6.15;;;4.70;;
37407;SDS011;24866;50.248;8.252;2023-08-21T10:08:20;5.60;;;2.67;;
37407;SDS011;24866;50.248;8.252;2023-08-21T10:10:54;4.18;;;3.30;;
37407;SDS011;24866;50.248;8.252;2023-08-21T10:13:25;5.05;;;2.97;;
37407;SDS011;24866;50.248;8.252;2023-08-21T10:15:55;5.40;;;3.55;;
37407;SDS011;24866;50.248;8.252;2023-08-21T10:18:29;6.45;;;3.30;;
37407;SDS011;24866;50.248;8.252;2023-08-21T10:21:10;5.75;;;4.32;;
37407;SDS011;24866;50.248;8.252;2023-08-21T10:23:41;8.93;;;4.40;;
37407;SDS011;24866;50.248;8.252;2023-08-21T10:26:18;4.53;;;3.88;;
37407;SDS011;24866;50.248;8.252;2023-08-21T10:28:49;5.90;;;3.88;;
37407;SDS011;24866;50.248;8.252;2023-08-21T10:31:27;7.88;;;4.40;;
37407;SDS011;24866;50.248;8.252;2023-08-21T10:33:59;7.55;;;4.00;;
37407;SDS011;24866;50.248;8.252;2023-08-21T10:36:36;5.97;;;4.78;;
37407;SDS011;24866;50.248;8.252;2023-08-21T10:39:31;8.57;;;4.57;;
37407;SDS011;24866;50.248;8.252;2023-08-21T10:42:04;7.82;;;4.50;;
37407;SDS011;24866;50.248;8.252;2023-08-21T10:44:36;5.60;;;4.32;;
37407;SDS011;24866;50.248;8.252;2023-08-21T10:47:20;6.28;;;4.03;;
37407;SDS011;24866;50.248;8.252;2023-08-21T10:49:51;4.88;;;3.63;;
37407;SDS011;24866;50.248;8.252;2023-08-21T10:52:23;5.97;;;3.80;;
37407;SDS011;24866;50.248;8.252;2023-08-21T10:54:54;6.80;;;4.43;;
37407;SDS011;24866;50.248;8.252;2023-08-21T10:57:29;6.00;;;3.60;;
37407;SDS011;24866;50.248;8.252;2023-08-21T11:00:01;6.03;;;3.75;;
37407;SDS011;24866;50.248;8.252;2023-08-21T11:02:32;5.60;;;4.05;;
37407;SDS011;24866;50.248;8.252;2023-08-21T11:05:03;5.07;;;4.05;;
37407;SDS011;24866;50.248;8.252;2023-08-21T11:07:36;5.57;;;3.92;;
37407;SDS011;24866;50.248;8.252;2023-08-21T11:10:07;6.28;;;3.83;;
37407;SDS011;24866;50.248;8.252;2023-08-21T11:12:39;6.05;;;3.35;;
37407;SDS011;24866;50.248;8.252;2023-08-21T11:15:19;6.18;;;3.50;;
37407;SDS011;24866;50.248;8.252;2023-08-21T11:17:53;6.03;;;3.20;;
37407;SDS011;24866;50.248;8.252;2023-08-21T11:20:27;5.13;;;3.05;;
37407;SDS011;24866;50.248;8.252;2023-08-21T11:22:58;3.35;;;2.63;;
37407;SDS011;24866;50.248;8.252;2023-08-21T11:25:29;4.55;;;2.63;;
37407;SDS011;24866;50.248;8.252;2023-08-21T11:28:01;3.95;;;2.50;;
37407;SDS011;24866;50.248;8.252;2023-08-21T11:30:31;5.05;;;2.70;;
37407;SDS011;24866;50.248;8.252;2023-08-21T11:33:04;3.92;;;2.28;;
37407;SDS011;24866;50.248;8.252;2023-08-21T11:35:35;5.13;;;2.95;;
37407;SDS011;24866;50.248;8.252;2023-08-21T11:38:05;4.78;;;2.28;;
37407;SDS011;24866;50.248;8.252;2023-08-21T11:40:36;5.47;;;2.95;;
37407;SDS011;24866;50.248;8.252;2023-08-21T11:43:07;5.20;;;2.90;;
37407;SDS011;24866;50.248;8.252;2023-08-21T11:45:37;6.15;;;3.20;;
37407;SDS011;24866;50.248;8.252;2023-08-21T11:48:07;4.85;;;3.13;;
37407;SDS011;24866;50.248;8.252;2023-08-21T11:50:37;4.72;;;2.92;;
37407;SDS011;24866;50.248;8.252;2023-08-21T11:53:08;5.22;;;2.80;;
37407;SDS011;24866;50.248;8.252;2023-08-21T11:55:39;6.82;;;2.78;;
37407;SDS011;24866;50.248;8.252;2023-08-21T11:58:10;4.72;;;2.72;;
37407;SDS011;24866;50.248;8.252;2023-08-21T12:00:40;5.53;;;3.10;;
37407;SDS011;24866;50.248;8.252;2023-08-21T12:03:10;3.45;;;2.75;;
37407;SDS011;24866;50.248;8.252;2023-08-21T12:05:47;4.60;;;3.17;;
37407;SDS011;24866;50.248;8.252;2023-08-21T12:08:17;6.95;;;2.35;;
37407;SDS011;24866;50.248;8.252;2023-08-21T12:10:49;4.20;;;2.40;;
37407;SDS011;24866;50.248;8.252;2023-08-21T12:13:21;5.35;;;2.83;;
37407;SDS011;24866;50.248;8.252;2023-08-21T12:15:51;3.97;;;3.13;;
37407;SDS011;24866;50.248;8.252;2023-08-21T12:18:21;4.68;;;2.72;;
37407;SDS011;24866;50.248;8.252;2023-08-21T12:20:52;7.22;;;2.45;;
37407;SDS011;24866;50.248;8.252;2023-08-21T12:23:21;5.05;;;2.40;;
37407;SDS011;24866;50.248;8.252;2023-08-21T12:25:52;3.92;;;2.63;;
37407;SDS011;24866;50.248;8.252;2023-08-21T12:28:23;3.80;;;2.60;;
37407;SDS011;24866;50.248;8.252;2023-08-21T12:30:53;3.15;;;2.10;;
37407;SDS011;24866;50.248;8.252;2023-08-21T12:33:23;4.30;;;2.08;;
37407;SDS011;24866;50.248;8.252;2023-08-21T12:35:54;4.57;;;2.38;;
37407;SDS011;24866;50.248;8.252;2023-08-21T12:38:24;4.22;;;2.30;;
37407;SDS011;24866;50.248;8.252;2023-08-21T12:40:57;4.45;;;2.60;;
37407;SDS011;24866;50.248;8.252;2023-08-21T12:43:29;4.47;;;2.25;;
37407;SDS011;24866;50.248;8.252;2023-08-21T12:46:00;2.92;;;2.10;;
37407;SDS011;24866;50.248;8.252;2023-08-21T12:48:30;4.78;;;2.40;;
37407;SDS011;24866;50.248;8.252;2023-08-21T12:51:01;2.90;;;2.00;;
37407;SDS011;24866;50.248;8.252;2023-08-21T12:53:31;5.72;;;2.10;;
37407;SDS011;24866;50.248;8.252;2023-08-21T12:56:02;5.25;;;2.42;;
37407;SDS011;24866;50.248;8.252;2023-08-21T12:58:33;3.30;;;1.85;;
37407;SDS011;24866;50.248;8.252;2023-08-21T13:01:03;3.23;;;2.30;;
37407;SDS011;24866;50.248;8.252;2023-08-21T13:03:34;2.40;;;1.73;;
37407;SDS011;24866;50.248;8.252;2023-08-21T13:06:04;3.10;;;1.98;;
37407;SDS011;24866;50.248;8.252;2023-08-21T13:08:34;5.22;;;2.05;;
37407;SDS011;24866;50.248;8.252;2023-08-21T13:11:04;4.20;;;2.42;;
37407;SDS011;24866;50.248;8.252;2023-08-21T13:13:36;3.08;;;1.52;;
37407;SDS011;24866;50.248;8.252;2023-08-21T13:16:06;3.58;;;1.98;;
37407;SDS011;24866;50.248;8.252;2023-08-21T13:18:36;5.38;;;2.60;;
37407;SDS011;24866;50.248;8.252;2023-08-21T13:21:06;3.20;;;1.90;;
37407;SDS011;24866;50.248;8.252;2023-08-21T13:23:35;5.68;;;2.03;;
37407;SDS011;24866;50.248;8.252;2023-08-21T13:26:05;2.55;;;1.50;;
37407;SDS011;24866;50.248;8.252;2023-08-21T13:28:37;3.53;;;2.00;;
37407;SDS011;24866;50.248;8.252;2023-08-21T13:31:07;5.60;;;2.03;;
37407;SDS011;24866;50.248;8.252;2023-08-21T13:33:45;2.72;;;1.65;;
37407;SDS011;24866;50.248;8.252;2023-08-21T13:36:15;3.45;;;1.90;;
37407;SDS011;24866;50.248;8.252;2023-08-21T13:38:46;3.53;;;1.80;;
37407;SDS011;24866;50.248;8.252;2023-08-21T13:41:16;3.67;;;2.45;;
37407;SDS011;24866;50.248;8.252;2023-08-21T13:43:48;4.30;;;2.20;;
37407;SDS011;24866;50.248;8.252;2023-08-21T13:46:19;6.47;;;2.40;;
37407;SDS011;24866;50.248;8.252;2023-08-21T13:48:49;9.60;;;3.15;;
37407;SDS011;24866;50.248;8.252;2023-08-21T13:51:19;4.90;;;2.60;;
37407;SDS011;24866;50.248;8.252;2023-08-21T13:53:49;4.25;;;3.00;;
37407;SDS011;24866;50.248;8.252;2023-08-21T13:56:19;7.00;;;2.83;;
37407;SDS011;24866;50.248;8.252;2023-08-21T13:58:50;4.57;;;2.60;;
37407;SDS011;24866;50.248;8.252;2023-08-21T14:01:20;3.25;;;2.10;;
37407;SDS011;24866;50.248;8.252;2023-08-21T14:03:50;5.50;;;2.40;;
37407;SDS011;24866;50.248;8.252;2023-08-21T14:06:20;3.53;;;2.50;;
37407;SDS011;24866;50.248;8.252;2023-08-21T14:08:50;5.95;;;2.50;;
37407;SDS011;24866;50.248;8.252;2023-08-21T14:11:20;4.65;;;2.60;;
37407;SDS011;24866;50.248;8.252;2023-08-21T14:13:52;4.38;;;2.47;;
37407;SDS011;24866;50.248;8.252;2023-08-21T14:16:22;4.53;;;2.72;;
37407;SDS011;24866;50.248;8.252;2023-08-21T14:18:52;5.18;;;2.80;;
37407;SDS011;24866;50.248;8.252;2023-08-21T14:21:22;5.47;;;3.03;;
37407;SDS011;24866;50.248;8.252;2023-08-21T14:23:52;3.80;;;2.40;;
37407;SDS011;24866;50.248;8.252;2023-08-21T14:26:22;6.03;;;2.85;;
37407;SDS011;24866;50.248;8.252;2023-08-21T14:28:53;6.20;;;3.35;;
37407;SDS011;24866;50.248;8.252;2023-08-21T14:31:23;7.18;;;3.00;;
37407;SDS011;24866;50.248;8.252;2023-08-21T14:33:55;4.83;;;3.00;;
37407;SDS011;24866;50.248;8.252;2023-08-21T14:36:25;6.53;;;3.10;;
37407;SDS011;24866;50.248;8.252;2023-08-21T14:38:55;6.95;;;3.10;;
37407;SDS011;24866;50.248;8.252;2023-08-21T14:41:25;4.00;;;2.80;;
37407;SDS011;24866;50.248;8.252;2023-08-21T14:43:57;4.72;;;2.97;;
37407;SDS011;24866;50.248;8.252;2023-08-21T14:46:27;4.87;;;2.63;;
37407;SDS011;24866;50.248;8.252;2023-08-21T14:49:00;8.95;;;2.80;;
37407;SDS011;24866;50.248;8.252;2023-08-21T14:51:29;4.38;;;2.90;;
37407;SDS011;24866;50.248;8.252;2023-08-21T14:53:59;4.00;;;2.75;;
37407;SDS011;24866;50.248;8.252;2023-08-21T14:56:29;5.00;;;2.83;;
37407;SDS011;24866;50.248;8.252;2023-08-21T14:59:01;3.85;;;2.78;;
37407;SDS011;24866;50.248;8.252;2023-08-21T15:01:31;7.32;;;3.28;;
37407;SDS011;24866;50.248;8.252;2023-08-21T15:04:01;5.57;;;3.22;;
37407;SDS011;24866;50.248;8.252;2023-08-21T15:06:31;6.60;;;2.90;;
37407;SDS011;24866;50.248;8.252;2023-08-21T15:09:01;5.38;;;2.83;;
37407;SDS011;24866;50.248;8.252;2023-08-21T15:11:31;5.35;;;2.75;;
37407;SDS011;24866;50.248;8.252;2023-08-21T15:14:03;10.00;;;3.25;;